sensor_id;sensor_type;location;lat;lon;timestamp;temperature;humidity
16958;DHT22;8595;52.542;11.974;2023-06-26T00:00:02;22.10;99.90
16958;DHT22;8595;52.542;11.974;2023-06-26T00:02:31;22.20;99.90
16958;DHT22;8595;52.542;11.974;2023-06-26T00:04:58;22.20;99.90
16958;DHT22;8595;52.542;11.974;2023-06-26T00:07:28;22.20;99.90
16958;DHT22;8595;52.542;11.974;2023-06-26T00:09:56;22.20;99.90
16958;DHT22;8595;52.542;11.974;2023-06-26T00:12:24;22.20;99.90
16958;DHT22;8595;52.542;11.974;2023-06-26T00:14:50;22.10;99.90
16958;DHT22;8595;52.542;11.974;2023-06-26T00:17:18;22.10;99.90
16958;DHT22;8595;52.542;11.974;2023-06-26T00:19:45;22.10;99.90
16958;DHT22;8595;52.542;11.974;2023-06-26T00:22:13;22.10;99.90
16958;DHT22;8595;52.542;11.974;2023-06-26T00:24:39;22.00;99.90
16958;DHT22;8595;52.542;11.974;2023-06-26T00:27:08;22.00;99.90
16958;DHT22;8595;52.542;11.974;2023-06-26T00:29:34;22.00;99.90
16958;DHT22;8595;52.542;11.974;2023-06-26T00:32:01;21.90;99.90
16958;DHT22;8595;52.542;11.974;2023-06-26T00:34:28;21.90;99.90
16958;DHT22;8595;52.542;11.974;2023-06-26T00:36:55;21.90;99.90
16958;DHT22;8595;52.542;11.974;2023-06-26T00:39:22;21.80;99.90
16958;DHT22;8595;52.542;11.974;2023-06-26T00:41:51;21.70;99.90
16958;DHT22;8595;52.542;11.974;2023-06-26T00:44:20;21.60;99.90
16958;DHT22;8595;52.542;11.974;2023-06-26T00:46:47;21.60;99.90
16958;DHT22;8595;52.542;11.974;2023-06-26T00:49:14;21.60;99.90
16958;DHT22;8595;52.542;11.974;2023-06-26T00:51:41;21.60;99.90
16958;DHT22;8595;52.542;11.974;2023-06-26T00:54:08;21.60;99.90
16958;DHT22;8595;52.542;11.974;2023-06-26T00:56:35;21.60;99.90
16958;DHT22;8595;52.542;11.974;2023-06-26T00:59:03;21.50;99.90
16958;DHT22;8595;52.542;11.974;2023-06-26T01:01:31;21.40;99.90
16958;DHT22;8595;52.542;11.974;2023-06-26T01:03:58;21.40;99.90
16958;DHT22;8595;52.542;11.974;2023-06-26T01:06:26;21.40;99.90
16958;DHT22;8595;52.542;11.974;2023-06-26T01:08:55;21.40;99.90
16958;DHT22;8595;52.542;11.974;2023-06-26T01:11:22;21.40;99.90
16958;DHT22;8595;52.542;11.974;2023-06-26T01:13:49;21.50;99.90
16958;DHT22;8595;52.542;11.974;2023-06-26T01:16:18;21.50;99.90
16958;DHT22;8595;52.542;11.974;2023-06-26T01:18:47;21.50;99.90
16958;DHT22;8595;52.542;11.974;2023-06-26T01:21:18;21.40;99.90
16958;DHT22;8595;52.542;11.974;2023-06-26T01:23:56;21.30;99.90
16958;DHT22;8595;52.542;11.974;2023-06-26T01:26:29;21.30;99.90
16958;DHT22;8595;52.542;11.974;2023-06-26T01:28:57;21.20;99.90
16958;DHT22;8595;52.542;11.974;2023-06-26T01:31:26;21.10;99.90
16958;DHT22;8595;52.542;11.974;2023-06-26T01:33:53;21.00;99.90
16958;DHT22;8595;52.542;11.974;2023-06-26T01:36:22;21.00;99.90
16958;DHT22;8595;52.542;11.974;2023-06-26T01:38:49;21.00;99.90
16958;DHT22;8595;52.542;11.974;2023-06-26T01:41:17;21.00;99.90
16958;DHT22;8595;52.542;11.974;2023-06-26T01:44:03;20.90;99.90
16958;DHT22;8595;52.542;11.974;2023-06-26T01:46:38;20.90;99.90
16958;DHT22;8595;52.542;11.974;2023-06-26T01:49:11;21.00;99.90
16958;DHT22;8595;52.542;11.974;2023-06-26T01:51:42;21.00;99.90
16958;DHT22;8595;52.542;11.974;2023-06-26T01:54:16;21.00;99.90
16958;DHT22;8595;52.542;11.974;2023-06-26T01:56:46;20.90;99.90
16958;DHT22;8595;52.542;11.974;2023-06-26T01:59:16;20.80;99.90
16958;DHT22;8595;52.542;11.974;2023-06-26T02:01:44;20.70;99.90
16958;DHT22;8595;52.542;11.974;2023-06-26T02:04:11;20.70;99.90
16958;DHT22;8595;52.542;11.974;2023-06-26T02:06:37;20.70;99.90
16958;DHT22;8595;52.542;11.974;2023-06-26T02:09:04;20.80;99.90
16958;DHT22;8595;52.542;11.974;2023-06-26T02:11:31;20.60;99.90
16958;DHT22;8595;52.542;11.974;2023-06-26T02:13:58;20.60;99.90
16958;DHT22;8595;52.542;11.974;2023-06-26T02:16:26;20.60;99.90
16958;DHT22;8595;52.542;11.974;2023-06-26T02:18:52;20.60;99.90
16958;DHT22;8595;52.542;11.974;2023-06-26T02:21:19;20.60;99.90
16958;DHT22;8595;52.542;11.974;2023-06-26T02:23:46;20.50;99.90
16958;DHT22;8595;52.542;11.974;2023-06-26T02:26:12;20.60;99.90
16958;DHT22;8595;52.542;11.974;2023-06-26T02:28:39;20.60;99.90
16958;DHT22;8595;52.542;11.974;2023-06-26T02:31:09;20.60;99.90
16958;DHT22;8595;52.542;11.974;2023-06-26T02:33:37;20.60;99.90
16958;DHT22;8595;52.542;11.974;2023-06-26T02:36:04;20.60;99.90
16958;DHT22;8595;52.542;11.974;2023-06-26T02:38:31;20.50;99.90
16958;DHT22;8595;52.542;11.974;2023-06-26T02:40:58;20.50;99.90
16958;DHT22;8595;52.542;11.974;2023-06-26T02:43:25;20.50;99.90
16958;DHT22;8595;52.542;11.974;2023-06-26T02:45:51;20.50;99.90
16958;DHT22;8595;52.542;11.974;2023-06-26T02:48:18;20.40;99.90
16958;DHT22;8595;52.542;11.974;2023-06-26T02:50:46;20.40;99.90
16958;DHT22;8595;52.542;11.974;2023-06-26T02:53:13;20.30;99.90
16958;DHT22;8595;52.542;11.974;2023-06-26T02:55:41;20.20;99.90
16958;DHT22;8595;52.542;11.974;2023-06-26T02:58:07;20.20;99.90
16958;DHT22;8595;52.542;11.974;2023-06-26T03:00:34;20.20;99.90
16958;DHT22;8595;52.542;11.974;2023-06-26T03:03:06;20.20;99.90
16958;DHT22;8595;52.542;11.974;2023-06-26T03:05:33;20.10;99.90
16958;DHT22;8595;52.542;11.974;2023-06-26T03:08:02;20.10;99.90
16958;DHT22;8595;52.542;11.974;2023-06-26T03:10:29;20.10;99.90
16958;DHT22;8595;52.542;11.974;2023-06-26T03:12:56;20.10;99.90
16958;DHT22;8595;52.542;11.974;2023-06-26T03:15:22;20.00;99.90
16958;DHT22;8595;52.542;11.974;2023-06-26T03:17:49;20.00;99.90
16958;DHT22;8595;52.542;11.974;2023-06-26T03:20:16;19.90;99.90
16958;DHT22;8595;52.542;11.974;2023-06-26T03:22:43;19.90;99.90
16958;DHT22;8595;52.542;11.974;2023-06-26T03:25:11;19.80;99.90
16958;DHT22;8595;52.542;11.974;2023-06-26T03:27:38;19.80;99.90
16958;DHT22;8595;52.542;11.974;2023-06-26T03:30:05;19.80;99.90
16958;DHT22;8595;52.542;11.974;2023-06-26T03:32:32;19.80;99.90
16958;DHT22;8595;52.542;11.974;2023-06-26T03:34:59;19.80;99.90
16958;DHT22;8595;52.542;11.974;2023-06-26T03:37:27;19.80;99.90
16958;DHT22;8595;52.542;11.974;2023-06-26T03:39:54;19.80;99.90
16958;DHT22;8595;52.542;11.974;2023-06-26T03:42:22;19.90;99.90
16958;DHT22;8595;52.542;11.974;2023-06-26T03:44:48;19.90;99.90
16958;DHT22;8595;52.542;11.974;2023-06-26T03:47:15;19.90;99.90
16958;DHT22;8595;52.542;11.974;2023-06-26T03:49:42;19.90;99.90
16958;DHT22;8595;52.542;11.974;2023-06-26T03:52:09;19.90;99.90
16958;DHT22;8595;52.542;11.974;2023-06-26T03:54:36;19.90;99.90
16958;DHT22;8595;52.542;11.974;2023-06-26T03:57:03;19.90;99.90
16958;DHT22;8595;52.542;11.974;2023-06-26T03:59:31;19.90;99.90
16958;DHT22;8595;52.542;11.974;2023-06-26T04:01:57;20.00;99.90
16958;DHT22;8595;52.542;11.974;2023-06-26T04:04:24;20.00;99.90
16958;DHT22;8595;52.542;11.974;2023-06-26T04:06:51;20.10;99.90
16958;DHT22;8595;52.542;11.974;2023-06-26T04:09:18;20.10;99.90
16958;DHT22;8595;52.542;11.974;2023-06-26T04:11:45;20.10;99.90
16958;DHT22;8595;52.542;11.974;2023-06-26T04:14:11;20.10;99.90
16958;DHT22;8595;52.542;11.974;2023-06-26T04:16:39;20.10;99.90
16958;DHT22;8595;52.542;11.974;2023-06-26T04:19:06;20.10;99.90
16958;DHT22;8595;52.542;11.974;2023-06-26T04:21:33;20.10;99.90
16958;DHT22;8595;52.542;11.974;2023-06-26T04:24:00;20.10;99.90
16958;DHT22;8595;52.542;11.974;2023-06-26T04:26:27;20.10;99.90
16958;DHT22;8595;52.542;11.974;2023-06-26T04:28:54;20.10;99.90
16958;DHT22;8595;52.542;11.974;2023-06-26T04:31:21;20.20;99.90
16958;DHT22;8595;52.542;11.974;2023-06-26T04:33:49;20.30;99.90
16958;DHT22;8595;52.542;11.974;2023-06-26T04:36:16;20.30;99.90
16958;DHT22;8595;52.542;11.974;2023-06-26T04:38:43;20.30;99.90
16958;DHT22;8595;52.542;11.974;2023-06-26T04:41:10;20.30;99.90
16958;DHT22;8595;52.542;11.974;2023-06-26T04:43:37;20.40;99.90
16958;DHT22;8595;52.542;11.974;2023-06-26T04:46:04;20.40;99.90
16958;DHT22;8595;52.542;11.974;2023-06-26T04:48:31;20.40;99.90
16958;DHT22;8595;52.542;11.974;2023-06-26T04:50:59;20.50;99.90
16958;DHT22;8595;52.542;11.974;2023-06-26T04:53:26;20.50;99.90
16958;DHT22;8595;52.542;11.974;2023-06-26T04:55:53;20.50;99.90
16958;DHT22;8595;52.542;11.974;2023-06-26T04:58:20;20.50;99.90
16958;DHT22;8595;52.542;11.974;2023-06-26T05:00:47;20.60;99.90
16958;DHT22;8595;52.542;11.974;2023-06-26T05:03:16;20.70;99.90
16958;DHT22;8595;52.542;11.974;2023-06-26T05:05:43;20.80;99.90
16958;DHT22;8595;52.542;11.974;2023-06-26T05:08:16;20.80;99.90
16958;DHT22;8595;52.542;11.974;2023-06-26T05:10:43;20.80;99.90
16958;DHT22;8595;52.542;11.974;2023-06-26T05:13:10;20.90;99.90
16958;DHT22;8595;52.542;11.974;2023-06-26T05:15:40;21.00;99.90
16958;DHT22;8595;52.542;11.974;2023-06-26T05:18:07;21.10;99.90
16958;DHT22;8595;52.542;11.974;2023-06-26T05:20:34;21.20;99.90
16958;DHT22;8595;52.542;11.974;2023-06-26T05:23:01;21.20;99.90
16958;DHT22;8595;52.542;11.974;2023-06-26T05:25:30;21.20;99.90
16958;DHT22;8595;52.542;11.974;2023-06-26T05:27:57;21.30;99.90
16958;DHT22;8595;52.542;11.974;2023-06-26T05:30:25;21.40;99.90
16958;DHT22;8595;52.542;11.974;2023-06-26T05:32:53;21.50;99.90
16958;DHT22;8595;52.542;11.974;2023-06-26T05:35:21;21.60;99.90
16958;DHT22;8595;52.542;11.974;2023-06-26T05:37:49;21.70;99.90
16958;DHT22;8595;52.542;11.974;2023-06-26T05:40:18;21.70;99.90
16958;DHT22;8595;52.542;11.974;2023-06-26T05:42:47;21.70;99.90
16958;DHT22;8595;52.542;11.974;2023-06-26T05:45:15;21.70;99.90
16958;DHT22;8595;52.542;11.974;2023-06-26T05:47:42;21.80;99.90
16958;DHT22;8595;52.542;11.974;2023-06-26T05:50:10;21.80;99.90
16958;DHT22;8595;52.542;11.974;2023-06-26T05:52:37;22.00;99.90
16958;DHT22;8595;52.542;11.974;2023-06-26T05:55:06;22.10;99.90
16958;DHT22;8595;52.542;11.974;2023-06-26T05:57:34;22.20;99.90
16958;DHT22;8595;52.542;11.974;2023-06-26T06:00:03;22.30;99.90
16958;DHT22;8595;52.542;11.974;2023-06-26T06:02:35;22.30;99.90
16958;DHT22;8595;52.542;11.974;2023-06-26T06:05:03;22.40;99.90
16958;DHT22;8595;52.542;11.974;2023-06-26T06:07:31;22.50;99.90
16958;DHT22;8595;52.542;11.974;2023-06-26T06:09:58;22.60;99.90
16958;DHT22;8595;52.542;11.974;2023-06-26T06:12:24;22.70;99.90
16958;DHT22;8595;52.542;11.974;2023-06-26T06:14:51;22.80;99.90
16958;DHT22;8595;52.542;11.974;2023-06-26T06:17:19;22.90;99.90
16958;DHT22;8595;52.542;11.974;2023-06-26T06:19:47;23.00;99.90
16958;DHT22;8595;52.542;11.974;2023-06-26T06:22:18;23.20;99.90
16958;DHT22;8595;52.542;11.974;2023-06-26T06:24:45;23.30;99.90
16958;DHT22;8595;52.542;11.974;2023-06-26T06:27:12;23.50;99.90
16958;DHT22;8595;52.542;11.974;2023-06-26T06:29:39;23.50;99.90
16958;DHT22;8595;52.542;11.974;2023-06-26T06:32:06;23.80;99.90
16958;DHT22;8595;52.542;11.974;2023-06-26T06:34:34;23.90;99.90
16958;DHT22;8595;52.542;11.974;2023-06-26T06:37:02;23.90;99.90
16958;DHT22;8595;52.542;11.974;2023-06-26T06:39:29;24.00;99.90
16958;DHT22;8595;52.542;11.974;2023-06-26T06:41:56;24.20;99.90
16958;DHT22;8595;52.542;11.974;2023-06-26T06:44:22;24.20;99.90
16958;DHT22;8595;52.542;11.974;2023-06-26T06:46:49;24.20;99.90
16958;DHT22;8595;52.542;11.974;2023-06-26T06:49:16;24.30;99.90
16958;DHT22;8595;52.542;11.974;2023-06-26T06:51:44;24.30;99.90
16958;DHT22;8595;52.542;11.974;2023-06-26T06:54:11;24.40;99.90
16958;DHT22;8595;52.542;11.974;2023-06-26T06:56:38;24.50;99.90
16958;DHT22;8595;52.542;11.974;2023-06-26T06:59:05;24.60;99.90
16958;DHT22;8595;52.542;11.974;2023-06-26T07:01:31;24.70;99.90
16958;DHT22;8595;52.542;11.974;2023-06-26T07:03:58;24.90;99.90
16958;DHT22;8595;52.542;11.974;2023-06-26T07:06:25;25.00;99.90
16958;DHT22;8595;52.542;11.974;2023-06-26T07:08:53;25.00;99.90
16958;DHT22;8595;52.542;11.974;2023-06-26T07:11:20;25.00;99.90
16958;DHT22;8595;52.542;11.974;2023-06-26T07:13:47;25.10;99.90
16958;DHT22;8595;52.542;11.974;2023-06-26T07:16:14;25.10;99.90
16958;DHT22;8595;52.542;11.974;2023-06-26T07:18:42;25.20;99.90
16958;DHT22;8595;52.542;11.974;2023-06-26T07:21:09;25.30;99.90
16958;DHT22;8595;52.542;11.974;2023-06-26T07:23:35;25.50;99.90
16958;DHT22;8595;52.542;11.974;2023-06-26T07:26:03;25.60;99.90
16958;DHT22;8595;52.542;11.974;2023-06-26T07:28:30;25.80;99.90
16958;DHT22;8595;52.542;11.974;2023-06-26T07:30:58;25.90;99.90
16958;DHT22;8595;52.542;11.974;2023-06-26T07:33:25;26.00;99.90
16958;DHT22;8595;52.542;11.974;2023-06-26T07:35:51;26.20;99.90
16958;DHT22;8595;52.542;11.974;2023-06-26T07:38:18;26.40;99.90
16958;DHT22;8595;52.542;11.974;2023-06-26T07:40:45;26.40;99.90
16958;DHT22;8595;52.542;11.974;2023-06-26T07:43:15;26.40;99.90
16958;DHT22;8595;52.542;11.974;2023-06-26T07:45:42;26.60;99.90
16958;DHT22;8595;52.542;11.974;2023-06-26T07:48:09;26.60;99.90
16958;DHT22;8595;52.542;11.974;2023-06-26T07:50:35;26.90;99.90
16958;DHT22;8595;52.542;11.974;2023-06-26T07:53:02;27.20;99.90
16958;DHT22;8595;52.542;11.974;2023-06-26T07:55:31;27.50;99.90
16958;DHT22;8595;52.542;11.974;2023-06-26T07:57:58;27.60;99.90
16958;DHT22;8595;52.542;11.974;2023-06-26T08:00:28;27.50;99.90
16958;DHT22;8595;52.542;11.974;2023-06-26T08:02:55;27.50;99.90
16958;DHT22;8595;52.542;11.974;2023-06-26T08:05:21;27.40;99.90
16958;DHT22;8595;52.542;11.974;2023-06-26T08:07:49;27.50;99.90
16958;DHT22;8595;52.542;11.974;2023-06-26T08:10:16;27.50;99.90
16958;DHT22;8595;52.542;11.974;2023-06-26T08:12:43;27.60;99.90
16958;DHT22;8595;52.542;11.974;2023-06-26T08:15:10;27.70;99.90
16958;DHT22;8595;52.542;11.974;2023-06-26T08:17:40;28.00;99.90
16958;DHT22;8595;52.542;11.974;2023-06-26T08:20:08;27.90;99.90
16958;DHT22;8595;52.542;11.974;2023-06-26T08:22:34;27.90;99.90
16958;DHT22;8595;52.542;11.974;2023-06-26T08:25:02;28.00;99.90
16958;DHT22;8595;52.542;11.974;2023-06-26T08:27:32;28.10;99.90
16958;DHT22;8595;52.542;11.974;2023-06-26T08:29:59;28.10;99.90
16958;DHT22;8595;52.542;11.974;2023-06-26T08:32:25;28.20;99.90
16958;DHT22;8595;52.542;11.974;2023-06-26T08:34:53;28.10;99.90
16958;DHT22;8595;52.542;11.974;2023-06-26T08:37:20;28.20;99.90
16958;DHT22;8595;52.542;11.974;2023-06-26T08:39:47;28.30;99.90
16958;DHT22;8595;52.542;11.974;2023-06-26T08:42:14;28.40;99.90
16958;DHT22;8595;52.542;11.974;2023-06-26T08:44:41;28.60;99.90
16958;DHT22;8595;52.542;11.974;2023-06-26T08:47:11;28.70;99.90
16958;DHT22;8595;52.542;11.974;2023-06-26T08:49:45;28.50;99.90
16958;DHT22;8595;52.542;11.974;2023-06-26T08:52:17;28.70;99.90
16958;DHT22;8595;52.542;11.974;2023-06-26T08:54:46;28.70;99.90
16958;DHT22;8595;52.542;11.974;2023-06-26T08:57:18;28.80;99.90
16958;DHT22;8595;52.542;11.974;2023-06-26T08:59:46;29.00;99.90
16958;DHT22;8595;52.542;11.974;2023-06-26T09:02:13;29.00;99.90
16958;DHT22;8595;52.542;11.974;2023-06-26T09:04:40;29.00;99.90
16958;DHT22;8595;52.542;11.974;2023-06-26T09:07:07;29.20;99.90
16958;DHT22;8595;52.542;11.974;2023-06-26T09:09:36;29.30;99.90
16958;DHT22;8595;52.542;11.974;2023-06-26T09:12:04;29.60;99.90
16958;DHT22;8595;52.542;11.974;2023-06-26T09:14:31;30.10;99.90
16958;DHT22;8595;52.542;11.974;2023-06-26T09:16:58;30.50;99.90
16958;DHT22;8595;52.542;11.974;2023-06-26T09:19:25;31.30;99.90
16958;DHT22;8595;52.542;11.974;2023-06-26T09:21:52;32.10;99.90
16958;DHT22;8595;52.542;11.974;2023-06-26T09:24:21;32.20;99.90
16958;DHT22;8595;52.542;11.974;2023-06-26T09:26:50;32.60;99.90
16958;DHT22;8595;52.542;11.974;2023-06-26T09:29:18;32.90;99.90
16958;DHT22;8595;52.542;11.974;2023-06-26T09:31:46;33.00;99.90
16958;DHT22;8595;52.542;11.974;2023-06-26T09:34:13;33.20;99.90
16958;DHT22;8595;52.542;11.974;2023-06-26T09:36:39;32.70;99.90
16958;DHT22;8595;52.542;11.974;2023-06-26T09:39:08;32.80;99.90
16958;DHT22;8595;52.542;11.974;2023-06-26T09:41:37;33.40;99.90
16958;DHT22;8595;52.542;11.974;2023-06-26T09:44:06;33.70;99.90
16958;DHT22;8595;52.542;11.974;2023-06-26T09:46:33;33.70;99.90
16958;DHT22;8595;52.542;11.974;2023-06-26T09:49:04;34.00;99.90
16958;DHT22;8595;52.542;11.974;2023-06-26T09:51:32;34.30;99.90
16958;DHT22;8595;52.542;11.974;2023-06-26T09:53:59;34.30;99.90
16958;DHT22;8595;52.542;11.974;2023-06-26T09:56:27;34.50;99.90
16958;DHT22;8595;52.542;11.974;2023-06-26T09:58:56;34.40;99.90
16958;DHT22;8595;52.542;11.974;2023-06-26T10:01:24;34.30;99.90
16958;DHT22;8595;52.542;11.974;2023-06-26T10:03:51;33.90;99.90
16958;DHT22;8595;52.542;11.974;2023-06-26T10:06:21;34.00;99.90
16958;DHT22;8595;52.542;11.974;2023-06-26T10:08:49;34.20;99.90
16958;DHT22;8595;52.542;11.974;2023-06-26T10:11:19;34.40;99.90
16958;DHT22;8595;52.542;11.974;2023-06-26T10:13:49;34.80;99.90
16958;DHT22;8595;52.542;11.974;2023-06-26T10:16:19;34.70;99.90
16958;DHT22;8595;52.542;11.974;2023-06-26T10:18:51;35.00;99.90
16958;DHT22;8595;52.542;11.974;2023-06-26T10:21:20;35.20;99.90
16958;DHT22;8595;52.542;11.974;2023-06-26T10:23:51;35.60;99.90
16958;DHT22;8595;52.542;11.974;2023-06-26T10:26:21;36.20;99.90
16958;DHT22;8595;52.542;11.974;2023-06-26T10:28:48;35.60;99.90
16958;DHT22;8595;52.542;11.974;2023-06-26T10:31:19;35.50;99.90
16958;DHT22;8595;52.542;11.974;2023-06-26T10:33:49;35.50;99.90
16958;DHT22;8595;52.542;11.974;2023-06-26T10:36:17;35.30;99.90
16958;DHT22;8595;52.542;11.974;2023-06-26T10:38:52;35.30;99.90
16958;DHT22;8595;52.542;11.974;2023-06-26T10:41:20;35.60;99.90
16958;DHT22;8595;52.542;11.974;2023-06-26T10:43:52;35.80;99.90
16958;DHT22;8595;52.542;11.974;2023-06-26T10:46:33;35.80;99.90
16958;DHT22;8595;52.542;11.974;2023-06-26T10:49:01;36.00;99.90
16958;DHT22;8595;52.542;11.974;2023-06-26T10:51:28;36.00;99.90
16958;DHT22;8595;52.542;11.974;2023-06-26T10:53:58;36.40;99.90
16958;DHT22;8595;52.542;11.974;2023-06-26T10:56:48;36.80;99.90
16958;DHT22;8595;52.542;11.974;2023-06-26T10:59:17;36.30;99.90
16958;DHT22;8595;52.542;11.974;2023-06-26T11:01:45;35.40;99.90
16958;DHT22;8595;52.542;11.974;2023-06-26T11:04:14;35.50;99.90
16958;DHT22;8595;52.542;11.974;2023-06-26T11:06:45;35.80;99.90
16958;DHT22;8595;52.542;11.974;2023-06-26T11:09:17;35.70;99.90
16958;DHT22;8595;52.542;11.974;2023-06-26T11:11:58;35.10;99.90
16958;DHT22;8595;52.542;11.974;2023-06-26T11:14:27;34.90;99.90
16958;DHT22;8595;52.542;11.974;2023-06-26T11:16:56;35.10;99.90
16958;DHT22;8595;52.542;11.974;2023-06-26T11:19:27;34.90;99.90
16958;DHT22;8595;52.542;11.974;2023-06-26T11:22:04;35.20;99.90
16958;DHT22;8595;52.542;11.974;2023-06-26T11:24:33;35.40;99.90
16958;DHT22;8595;52.542;11.974;2023-06-26T11:27:00;35.60;99.90
16958;DHT22;8595;52.542;11.974;2023-06-26T11:29:28;35.70;99.90
16958;DHT22;8595;52.542;11.974;2023-06-26T11:32:00;36.20;99.90
16958;DHT22;8595;52.542;11.974;2023-06-26T11:34:33;36.60;99.90
16958;DHT22;8595;52.542;11.974;2023-06-26T11:37:00;36.30;99.90
16958;DHT22;8595;52.542;11.974;2023-06-26T11:39:28;36.00;99.90
16958;DHT22;8595;52.542;11.974;2023-06-26T11:41:55;35.90;99.90
16958;DHT22;8595;52.542;11.974;2023-06-26T11:44:22;35.40;99.90
16958;DHT22;8595;52.542;11.974;2023-06-26T11:46:52;35.30;99.90
16958;DHT22;8595;52.542;11.974;2023-06-26T11:49:21;35.50;99.90
16958;DHT22;8595;52.542;11.974;2023-06-26T11:51:52;35.50;99.90
16958;DHT22;8595;52.542;11.974;2023-06-26T11:54:31;35.50;99.90
16958;DHT22;8595;52.542;11.974;2023-06-26T11:56:58;35.50;99.90
16958;DHT22;8595;52.542;11.974;2023-06-26T11:59:36;35.10;99.90
16958;DHT22;8595;52.542;11.974;2023-06-26T12:02:07;34.30;99.90
16958;DHT22;8595;52.542;11.974;2023-06-26T12:04:38;33.60;99.90
16958;DHT22;8595;52.542;11.974;2023-06-26T12:07:09;33.10;99.90
16958;DHT22;8595;52.542;11.974;2023-06-26T12:09:38;32.60;99.90
16958;DHT22;8595;52.542;11.974;2023-06-26T12:12:06;32.20;99.90
16958;DHT22;8595;52.542;11.974;2023-06-26T12:14:35;31.80;99.90
16958;DHT22;8595;52.542;11.974;2023-06-26T12:17:05;31.50;99.90
16958;DHT22;8595;52.542;11.974;2023-06-26T12:19:33;29.10;99.90
16958;DHT22;8595;52.542;11.974;2023-06-26T12:22:08;25.20;99.90
16958;DHT22;8595;52.542;11.974;2023-06-26T12:24:37;22.00;99.90
16958;DHT22;8595;52.542;11.974;2023-06-26T12:27:08;21.50;99.90
16958;DHT22;8595;52.542;11.974;2023-06-26T12:29:35;21.40;99.90
16958;DHT22;8595;52.542;11.974;2023-06-26T12:32:04;21.30;99.90
16958;DHT22;8595;52.542;11.974;2023-06-26T12:34:36;21.60;99.90
16958;DHT22;8595;52.542;11.974;2023-06-26T12:37:04;22.10;99.90
16958;DHT22;8595;52.542;11.974;2023-06-26T12:39:47;22.80;99.90
16958;DHT22;8595;52.542;11.974;2023-06-26T12:42:14;23.60;99.90
16958;DHT22;8595;52.542;11.974;2023-06-26T12:44:42;24.40;99.90
16958;DHT22;8595;52.542;11.974;2023-06-26T12:47:09;25.20;99.90
16958;DHT22;8595;52.542;11.974;2023-06-26T12:49:36;26.40;99.90
16958;DHT22;8595;52.542;11.974;2023-06-26T12:52:05;27.40;99.90
16958;DHT22;8595;52.542;11.974;2023-06-26T12:54:33;28.60;99.90
16958;DHT22;8595;52.542;11.974;2023-06-26T12:57:02;29.50;99.90
16958;DHT22;8595;52.542;11.974;2023-06-26T12:59:29;30.20;99.90
16958;DHT22;8595;52.542;11.974;2023-06-26T13:01:56;30.60;99.90
16958;DHT22;8595;52.542;11.974;2023-06-26T13:04:23;31.10;99.90
16958;DHT22;8595;52.542;11.974;2023-06-26T13:06:50;31.00;99.90
16958;DHT22;8595;52.542;11.974;2023-06-26T13:09:17;31.10;99.90
16958;DHT22;8595;52.542;11.974;2023-06-26T13:11:44;30.70;99.90
16958;DHT22;8595;52.542;11.974;2023-06-26T13:14:14;30.10;99.90
16958;DHT22;8595;52.542;11.974;2023-06-26T13:16:41;29.60;99.90
16958;DHT22;8595;52.542;11.974;2023-06-26T13:19:07;28.70;99.90
16958;DHT22;8595;52.542;11.974;2023-06-26T13:21:35;27.80;99.90
16958;DHT22;8595;52.542;11.974;2023-06-26T13:24:02;27.20;99.90
16958;DHT22;8595;52.542;11.974;2023-06-26T13:26:30;26.80;99.90
16958;DHT22;8595;52.542;11.974;2023-06-26T13:28:57;26.50;99.90
16958;DHT22;8595;52.542;11.974;2023-06-26T13:31:26;26.00;99.90
16958;DHT22;8595;52.542;11.974;2023-06-26T13:33:53;26.20;99.90
16958;DHT22;8595;52.542;11.974;2023-06-26T13:36:20;26.20;99.90
16958;DHT22;8595;52.542;11.974;2023-06-26T13:38:47;26.00;99.90
16958;DHT22;8595;52.542;11.974;2023-06-26T13:41:22;25.90;99.90
16958;DHT22;8595;52.542;11.974;2023-06-26T13:43:52;26.00;99.90
16958;DHT22;8595;52.542;11.974;2023-06-26T13:46:21;26.30;99.90
16958;DHT22;8595;52.542;11.974;2023-06-26T13:48:49;27.20;99.90
16958;DHT22;8595;52.542;11.974;2023-06-26T13:51:15;27.10;99.90
16958;DHT22;8595;52.542;11.974;2023-06-26T13:53:42;26.80;99.90
16958;DHT22;8595;52.542;11.974;2023-06-26T13:56:09;26.60;99.90
16958;DHT22;8595;52.542;11.974;2023-06-26T13:58:35;26.60;99.90
16958;DHT22;8595;52.542;11.974;2023-06-26T14:01:05;26.30;99.90
16958;DHT22;8595;52.542;11.974;2023-06-26T14:03:31;26.00;99.90
16958;DHT22;8595;52.542;11.974;2023-06-26T14:05:59;25.70;99.90
16958;DHT22;8595;52.542;11.974;2023-06-26T14:08:26;26.00;99.90
16958;DHT22;8595;52.542;11.974;2023-06-26T14:10:53;26.20;99.90
16958;DHT22;8595;52.542;11.974;2023-06-26T14:13:20;26.30;99.90
16958;DHT22;8595;52.542;11.974;2023-06-26T14:15:47;26.40;99.90
16958;DHT22;8595;52.542;11.974;2023-06-26T14:18:14;26.10;99.90
16958;DHT22;8595;52.542;11.974;2023-06-26T14:20:40;26.20;99.90
16958;DHT22;8595;52.542;11.974;2023-06-26T14:23:08;26.30;99.90
16958;DHT22;8595;52.542;11.974;2023-06-26T14:25:35;26.50;99.90
16958;DHT22;8595;52.542;11.974;2023-06-26T14:28:02;26.40;99.90
16958;DHT22;8595;52.542;11.974;2023-06-26T14:30:29;26.40;99.90
16958;DHT22;8595;52.542;11.974;2023-06-26T14:32:55;26.20;99.90
16958;DHT22;8595;52.542;11.974;2023-06-26T14:35:22;26.10;99.90
16958;DHT22;8595;52.542;11.974;2023-06-26T14:37:49;25.60;99.90
16958;DHT22;8595;52.542;11.974;2023-06-26T14:40:17;25.40;99.90
16958;DHT22;8595;52.542;11.974;2023-06-26T14:42:43;25.60;99.90
16958;DHT22;8595;52.542;11.974;2023-06-26T14:45:12;25.90;99.90
16958;DHT22;8595;52.542;11.974;2023-06-26T14:47:38;26.40;99.90
16958;DHT22;8595;52.542;11.974;2023-06-26T14:50:07;27.00;99.90
16958;DHT22;8595;52.542;11.974;2023-06-26T14:52:34;27.60;99.90
16958;DHT22;8595;52.542;11.974;2023-06-26T14:55:01;28.10;99.90
16958;DHT22;8595;52.542;11.974;2023-06-26T14:57:33;28.40;99.90
16958;DHT22;8595;52.542;11.974;2023-06-26T14:59:59;28.80;99.90
16958;DHT22;8595;52.542;11.974;2023-06-26T15:02:26;28.80;99.90
16958;DHT22;8595;52.542;11.974;2023-06-26T15:04:53;29.10;99.90
16958;DHT22;8595;52.542;11.974;2023-06-26T15:07:20;29.50;99.90
16958;DHT22;8595;52.542;11.974;2023-06-26T15:09:47;29.30;99.90
16958;DHT22;8595;52.542;11.974;2023-06-26T15:12:13;29.10;99.90
16958;DHT22;8595;52.542;11.974;2023-06-26T15:14:41;28.60;99.90
16958;DHT22;8595;52.542;11.974;2023-06-26T15:17:08;27.90;99.90
16958;DHT22;8595;52.542;11.974;2023-06-26T15:19:36;27.30;99.90
16958;DHT22;8595;52.542;11.974;2023-06-26T15:22:03;27.00;99.90
16958;DHT22;8595;52.542;11.974;2023-06-26T15:24:29;26.90;99.90
16958;DHT22;8595;52.542;11.974;2023-06-26T15:26:56;26.60;99.90
16958;DHT22;8595;52.542;11.974;2023-06-26T15:29:23;26.60;99.90
16958;DHT22;8595;52.542;11.974;2023-06-26T15:31:52;26.60;99.90
16958;DHT22;8595;52.542;11.974;2023-06-26T15:34:19;26.50;99.90